createdAt,value
2018-07-23T00:00:40.128Z,996.51
2018-07-23T00:01:40.165Z,996.50
2018-07-23T00:02:40.198Z,996.48
2018-07-23T00:03:40.232Z,996.49
2018-07-23T00:04:40.266Z,996.47
2018-07-23T00:05:40.301Z,996.46
2018-07-23T00:06:40.335Z,996.50
2018-07-23T00:07:40.370Z,996.49
2018-07-23T00:08:40.404Z,996.52
2018-07-23T00:09:40.441Z,996.52
2018-07-23T00:10:40.475Z,996.54
2018-07-23T00:11:40.510Z,996.52
2018-07-23T00:12:40.554Z,996.52
2018-07-23T00:13:40.578Z,996.52
2018-07-23T00:14:40.615Z,996.52
2018-07-23T00:15:40.649Z,996.52
2018-07-23T00:16:40.680Z,996.52
2018-07-23T00:17:40.717Z,996.50
2018-07-23T00:18:40.750Z,996.52
2018-07-23T00:19:40.785Z,996.52
2018-07-23T00:20:40.820Z,996.49
2018-07-23T00:21:40.854Z,996.47
2018-07-23T00:22:40.894Z,996.48
2018-07-23T00:23:40.924Z,996.47
2018-07-23T00:24:40.957Z,996.47
2018-07-23T00:25:40.993Z,996.50
2018-07-23T00:26:41.026Z,996.50
2018-07-23T00:27:41.062Z,996.51
2018-07-23T00:28:41.094Z,996.48
2018-07-23T00:29:41.130Z,996.51
2018-07-23T00:30:41.164Z,996.47
2018-07-23T00:31:41.203Z,996.49
2018-07-23T00:32:41.233Z,996.48
2018-07-23T00:33:41.272Z,996.46
2018-07-23T00:34:41.302Z,996.51
2018-07-23T00:35:41.341Z,996.50
2018-07-23T00:36:41.371Z,996.51
2018-07-23T00:37:41.405Z,996.52
2018-07-23T00:38:41.440Z,996.50
2018-07-23T00:39:41.474Z,996.50
2018-07-23T00:40:41.508Z,996.54
2018-07-23T00:41:41.544Z,996.55
2018-07-23T00:42:41.579Z,996.53
2018-07-23T00:43:41.613Z,996.53
2018-07-23T00:44:41.647Z,996.55
2018-07-23T00:45:41.681Z,996.55
2018-07-23T00:46:41.716Z,996.55
2018-07-23T00:47:41.750Z,996.53
2018-07-23T00:48:41.784Z,996.53
2018-07-23T00:49:41.817Z,996.56
2018-07-23T00:50:41.853Z,996.56
2018-07-23T00:51:41.888Z,996.54
2018-07-23T00:52:41.923Z,996.52
2018-07-23T00:53:41.956Z,996.49
2018-07-23T00:54:41.992Z,996.51
2018-07-23T00:55:42.027Z,996.47
2018-07-23T00:56:42.059Z,996.47
2018-07-23T00:57:42.093Z,996.46
2018-07-23T00:58:42.128Z,996.43
2018-07-23T00:59:42.163Z,996.43
2018-07-23T01:00:42.196Z,996.41
2018-07-23T01:01:42.231Z,996.42
2018-07-23T01:02:42.265Z,996.40
2018-07-23T01:03:42.301Z,996.38
2018-07-23T01:04:42.334Z,996.44
2018-07-23T01:05:42.368Z,996.45
2018-07-23T01:06:42.402Z,996.43
2018-07-23T01:07:42.436Z,996.42
2018-07-23T01:08:42.471Z,996.42
2018-07-23T01:09:42.508Z,996.43
2018-07-23T01:10:42.539Z,996.44
2018-07-23T01:11:42.575Z,996.45
2018-07-23T01:12:42.612Z,996.44
2018-07-23T01:13:42.643Z,996.43
2018-07-23T01:14:42.676Z,996.47
2018-07-23T01:15:42.712Z,996.48
2018-07-23T01:16:42.746Z,996.49
2018-07-23T01:17:42.780Z,996.45
2018-07-23T01:18:42.816Z,996.46
2018-07-23T01:19:42.849Z,996.47
2018-07-23T01:20:42.886Z,996.48
2018-07-23T01:21:42.917Z,996.49
2018-07-23T01:22:42.952Z,996.48
2018-07-23T01:23:42.986Z,996.51
2018-07-23T01:24:43.020Z,996.48
2018-07-23T01:25:43.055Z,996.54
2018-07-23T01:26:43.089Z,996.52
2018-07-23T01:27:43.125Z,996.51
2018-07-23T01:28:43.157Z,996.52
2018-07-23T01:29:43.190Z,996.54
2018-07-23T01:30:43.228Z,996.51
2018-07-23T01:31:43.261Z,996.56
2018-07-23T01:32:43.293Z,996.48
2018-07-23T01:33:43.327Z,996.50
2018-07-23T01:34:43.362Z,996.51
2018-07-23T01:35:43.397Z,996.50
2018-07-23T01:36:43.430Z,996.51
2018-07-23T01:37:43.466Z,996.53
2018-07-23T01:38:43.498Z,996.51
2018-07-23T01:39:43.534Z,996.50
2018-07-23T01:40:43.567Z,996.53
2018-07-23T01:41:43.601Z,996.53
2018-07-23T01:42:43.635Z,996.54
2018-07-23T01:43:43.670Z,996.52
2018-07-23T01:44:43.702Z,996.53
2018-07-23T01:45:43.738Z,996.51
2018-07-23T01:46:43.773Z,996.52
2018-07-23T01:47:43.807Z,996.53
2018-07-23T01:48:43.843Z,996.53
2018-07-23T01:49:43.880Z,996.55
2018-07-23T01:50:43.909Z,996.52
2018-07-23T01:51:43.944Z,996.55
2018-07-23T01:52:43.977Z,996.54
2018-07-23T01:53:44.011Z,996.53
2018-07-23T01:54:44.045Z,996.50
2018-07-23T01:55:44.079Z,996.52
2018-07-23T01:56:44.116Z,996.51
2018-07-23T01:57:44.147Z,996.57
2018-07-23T01:58:44.182Z,996.53
2018-07-23T01:59:44.216Z,996.54
2018-07-23T02:00:44.249Z,996.53
2018-07-23T02:01:44.284Z,996.53
2018-07-23T02:02:44.318Z,996.55
2018-07-23T02:03:44.354Z,996.56
2018-07-23T02:04:44.386Z,996.53
2018-07-23T02:05:44.420Z,996.53
2018-07-23T02:06:44.455Z,996.56
2018-07-23T02:07:44.489Z,996.51
2018-07-23T02:08:44.522Z,996.52
2018-07-23T02:09:44.556Z,996.51
2018-07-23T02:10:44.592Z,996.54
2018-07-23T02:11:44.625Z,996.54
2018-07-23T02:12:44.658Z,996.53
2018-07-23T02:13:44.693Z,996.53
2018-07-23T02:14:44.726Z,996.56
2018-07-23T02:15:44.761Z,996.54
2018-07-23T02:16:44.794Z,996.53
2018-07-23T02:17:44.828Z,996.53
2018-07-23T02:18:44.865Z,996.53
2018-07-23T02:19:44.901Z,996.55
2018-07-23T02:20:44.931Z,996.53
2018-07-23T02:21:44.964Z,996.55
2018-07-23T02:22:44.999Z,996.51
2018-07-23T02:23:45.035Z,996.54
2018-07-23T02:24:45.065Z,996.52
2018-07-23T02:25:45.101Z,996.49
2018-07-23T02:26:45.151Z,996.57
2018-07-23T02:27:45.170Z,996.56
2018-07-23T02:28:45.203Z,996.58
2018-07-23T02:29:45.237Z,996.56
2018-07-23T02:30:45.271Z,996.54
2018-07-23T02:31:45.306Z,996.55
2018-07-23T02:32:45.339Z,996.57
2018-07-23T02:33:45.373Z,996.58
2018-07-23T02:34:45.406Z,996.61
2018-07-23T02:35:45.441Z,996.60
2018-07-23T02:36:45.474Z,996.60
2018-07-23T02:37:45.508Z,996.59
2018-07-23T02:38:45.548Z,996.61
2018-07-23T02:39:45.576Z,996.62
2018-07-23T02:40:45.611Z,996.58
2018-07-23T02:41:45.645Z,996.63
2018-07-23T02:42:45.684Z,996.60
2018-07-23T02:43:45.713Z,996.63
2018-07-23T02:44:45.747Z,996.65
2018-07-23T02:45:45.781Z,996.67
2018-07-23T02:46:45.814Z,996.65
2018-07-23T02:47:45.849Z,996.64
2018-07-23T02:48:45.883Z,996.67
2018-07-23T02:49:45.917Z,996.70
2018-07-23T02:50:45.951Z,996.72
2018-07-23T02:51:45.985Z,996.71
2018-07-23T02:52:46.019Z,996.75
2018-07-23T02:53:46.053Z,996.74
2018-07-23T02:54:46.087Z,996.73
2018-07-23T02:55:46.121Z,996.71
2018-07-23T02:56:46.153Z,996.78
2018-07-23T02:57:46.199Z,996.79
2018-07-23T02:58:46.223Z,996.79
2018-07-23T02:59:46.383Z,996.75
2018-07-23T03:00:46.290Z,996.76
2018-07-23T03:01:46.327Z,996.76
2018-07-23T03:02:46.359Z,996.74
2018-07-23T03:03:46.397Z,996.73
2018-07-23T03:04:46.426Z,996.74
2018-07-23T03:05:46.462Z,996.75
2018-07-23T03:06:46.493Z,996.78
2018-07-23T03:07:46.530Z,996.75
2018-07-23T03:08:46.560Z,996.82
2018-07-23T03:09:46.600Z,996.78
2018-07-23T03:10:46.629Z,996.84
2018-07-23T03:11:46.662Z,996.82
2018-07-23T03:12:46.696Z,996.80
2018-07-23T03:13:46.730Z,996.82
2018-07-23T03:14:46.764Z,996.84
2018-07-23T03:15:46.798Z,996.83
2018-07-23T03:16:46.838Z,996.85
2018-07-23T03:17:46.866Z,996.83
2018-07-23T03:18:46.899Z,996.83
2018-07-23T03:19:46.932Z,996.85
2018-07-23T03:20:46.967Z,996.88
2018-07-23T03:21:47.062Z,996.89
2018-07-23T03:22:47.035Z,996.86
2018-07-23T03:23:47.069Z,996.85
2018-07-23T03:24:47.118Z,996.82
2018-07-23T03:25:47.140Z,996.83
2018-07-23T03:26:47.169Z,996.85
2018-07-23T03:27:47.205Z,996.87
2018-07-23T03:28:47.237Z,996.90
2018-07-23T03:29:47.270Z,996.87
2018-07-23T03:30:47.307Z,996.86
2018-07-23T03:31:47.340Z,996.88
2018-07-23T03:32:47.372Z,996.88
2018-07-23T03:33:47.406Z,996.93
2018-07-23T03:34:47.440Z,996.88
2018-07-23T03:35:47.474Z,996.93
2018-07-23T03:36:47.507Z,996.95
2018-07-23T03:37:47.543Z,996.94
2018-07-23T03:38:47.580Z,996.95
2018-07-23T03:39:47.609Z,996.91
2018-07-23T03:40:47.643Z,996.97
2018-07-23T03:41:47.676Z,996.98
2018-07-23T03:42:48.316Z,996.97
2018-07-23T03:43:47.745Z,997.01
2018-07-23T03:44:47.777Z,996.99
2018-07-23T03:45:47.812Z,996.97
2018-07-23T03:46:47.846Z,997.01
2018-07-23T03:47:47.879Z,997.02
2018-07-23T03:48:47.914Z,997.05
2018-07-23T03:49:47.947Z,997.02
2018-07-23T03:50:47.981Z,997.05
2018-07-23T03:51:48.015Z,997.08
2018-07-23T03:52:48.047Z,997.09
2018-07-23T03:53:48.082Z,997.07
2018-07-23T03:54:48.116Z,997.09
2018-07-23T03:55:48.152Z,997.09
2018-07-23T03:56:48.182Z,997.09
2018-07-23T03:57:48.217Z,997.15
2018-07-23T03:58:48.252Z,997.12
2018-07-23T03:59:48.284Z,997.11
2018-07-23T04:00:48.317Z,997.14
2018-07-23T04:01:48.354Z,997.13
2018-07-23T04:02:48.385Z,997.13
2018-07-23T04:03:48.420Z,997.13
2018-07-23T04:04:48.453Z,997.14
2018-07-23T04:05:48.487Z,997.19
2018-07-23T04:06:48.520Z,997.17
2018-07-23T04:07:48.557Z,997.17
2018-07-23T04:08:48.588Z,997.20
2018-07-23T04:09:48.621Z,997.21
2018-07-23T04:10:48.670Z,997.27
2018-07-23T04:11:48.689Z,997.27
2018-07-23T04:12:48.721Z,997.29
2018-07-23T04:13:48.757Z,997.30
2018-07-23T04:14:48.794Z,997.32
2018-07-23T04:15:48.825Z,997.32
2018-07-23T04:16:48.857Z,997.32
2018-07-23T04:17:48.891Z,997.32
2018-07-23T04:18:48.925Z,997.35
2018-07-23T04:19:48.959Z,997.33
2018-07-23T04:20:48.992Z,997.36
2018-07-23T04:21:49.027Z,997.31
2018-07-23T04:22:49.060Z,997.31
2018-07-23T04:23:49.094Z,997.33
2018-07-23T04:24:49.127Z,997.34
2018-07-23T04:25:49.160Z,997.33
2018-07-23T04:26:49.198Z,997.35
2018-07-23T04:27:49.228Z,997.37
2018-07-23T04:28:49.264Z,997.33
2018-07-23T04:29:49.295Z,997.33
2018-07-23T04:30:49.329Z,997.39
2018-07-23T04:31:49.363Z,997.36
2018-07-23T04:32:49.396Z,997.39
2018-07-23T04:33:49.430Z,997.41
2018-07-23T04:34:49.464Z,997.40
2018-07-23T04:35:49.498Z,997.41
2018-07-23T04:36:49.531Z,997.44
2018-07-23T04:37:49.626Z,997.41
2018-07-23T04:38:49.598Z,997.43
2018-07-23T04:39:49.633Z,997.43
2018-07-23T04:40:49.666Z,997.42
2018-07-23T04:41:49.701Z,997.46
2018-07-23T04:42:49.736Z,997.42
2018-07-23T04:43:49.766Z,997.46
2018-07-23T04:44:49.804Z,997.46
2018-07-23T04:45:49.834Z,997.48
2018-07-23T04:46:49.869Z,997.44
2018-07-23T04:47:49.902Z,997.48
2018-07-23T04:48:49.934Z,997.49
2018-07-23T04:49:49.969Z,997.48
2018-07-23T04:50:50.007Z,997.49
2018-07-23T04:51:50.038Z,997.53
2018-07-23T04:52:50.070Z,997.55
2018-07-23T04:53:50.103Z,997.53
2018-07-23T04:54:50.138Z,997.55
2018-07-23T04:55:50.172Z,997.54
2018-07-23T04:56:50.285Z,997.59
2018-07-23T04:57:50.239Z,997.62
2018-07-23T04:58:50.272Z,997.59
2018-07-23T04:59:50.307Z,997.62
2018-07-23T05:00:50.340Z,997.60
2018-07-23T05:01:50.374Z,997.61
2018-07-23T05:02:50.408Z,997.61
2018-07-23T05:03:50.443Z,997.60
2018-07-23T05:04:50.477Z,997.65
2018-07-23T05:05:50.514Z,997.56
2018-07-23T05:06:50.543Z,997.65
2018-07-23T05:07:50.578Z,997.63
2018-07-23T05:08:50.609Z,997.61
2018-07-23T05:09:50.645Z,997.62
2018-07-23T05:10:50.679Z,997.62
2018-07-23T05:11:50.713Z,997.60
2018-07-23T05:12:50.746Z,997.60
2018-07-23T05:13:50.779Z,997.60
2018-07-23T05:14:50.814Z,997.59
2018-07-23T05:15:50.892Z,997.65
2018-07-23T05:16:50.885Z,997.65
2018-07-23T05:17:50.916Z,997.62
2018-07-23T05:18:50.953Z,997.66
2018-07-23T05:19:50.984Z,997.64
2018-07-23T05:20:51.018Z,997.67
2018-07-23T05:21:51.051Z,997.62
2018-07-23T05:22:51.088Z,997.63
2018-07-23T05:23:51.146Z,997.66
2018-07-23T05:24:51.157Z,997.66
2018-07-23T05:25:51.189Z,997.64
2018-07-23T05:26:51.222Z,997.63
2018-07-23T05:27:51.257Z,997.62
2018-07-23T05:28:51.290Z,997.64
2018-07-23T05:29:51.325Z,997.68
2018-07-23T05:30:51.358Z,997.71
2018-07-23T05:31:51.441Z,997.67
2018-07-23T05:32:51.426Z,997.72
2018-07-23T05:33:51.462Z,997.72
2018-07-23T05:34:51.496Z,997.73
2018-07-23T05:35:51.530Z,997.73
2018-07-23T05:36:51.563Z,997.76
2018-07-23T05:37:51.597Z,997.73
2018-07-23T05:38:51.634Z,997.74
2018-07-23T05:39:51.667Z,997.74
2018-07-23T05:40:51.700Z,997.76
2018-07-23T05:41:51.735Z,997.73
2018-07-23T05:42:51.770Z,997.76
2018-07-23T05:43:51.804Z,997.73
2018-07-23T05:44:51.839Z,997.72
2018-07-23T05:45:51.872Z,997.73
2018-07-23T05:46:51.911Z,997.76
2018-07-23T05:47:51.945Z,997.72
2018-07-23T05:48:51.977Z,997.75
2018-07-23T05:49:52.013Z,997.77
2018-07-23T05:50:52.045Z,997.78
2018-07-23T05:51:52.079Z,997.84
2018-07-23T05:52:52.118Z,997.80
2018-07-23T05:53:52.148Z,997.82
2018-07-23T05:54:52.183Z,997.87
2018-07-23T05:55:52.219Z,997.88
2018-07-23T05:56:52.252Z,997.89
2018-07-23T05:57:52.287Z,997.90
2018-07-23T05:58:52.373Z,997.89
2018-07-23T05:59:52.358Z,997.87
2018-07-23T06:00:52.396Z,997.90
2018-07-23T06:01:52.426Z,997.85
2018-07-23T06:02:52.461Z,997.90
2018-07-23T06:03:52.499Z,997.90
2018-07-23T06:04:52.535Z,997.92
2018-07-23T06:05:52.566Z,997.92
2018-07-23T06:06:52.693Z,997.90
2018-07-23T06:07:52.636Z,997.92
2018-07-23T06:08:52.670Z,997.93
2018-07-23T06:09:52.723Z,997.91
2018-07-23T06:10:52.740Z,997.91
2018-07-23T06:11:52.778Z,997.93
2018-07-23T06:12:52.813Z,997.93
2018-07-23T06:13:52.848Z,997.92
2018-07-23T06:14:52.882Z,997.93
2018-07-23T06:15:52.916Z,997.95
2018-07-23T06:16:52.952Z,997.95
2018-07-23T06:17:52.987Z,997.89
2018-07-23T06:18:53.022Z,997.91
2018-07-23T06:19:53.058Z,997.91
2018-07-23T06:20:53.092Z,997.92
2018-07-23T06:21:53.137Z,997.91
2018-07-23T06:22:53.165Z,997.91
2018-07-23T06:23:53.201Z,997.89
2018-07-23T06:24:53.237Z,997.89
2018-07-23T06:25:53.274Z,997.91
2018-07-23T06:26:53.306Z,997.91
2018-07-23T06:27:53.343Z,997.92
2018-07-23T06:28:53.377Z,997.93
2018-07-23T06:29:53.412Z,997.90
2018-07-23T06:30:53.451Z,997.90
2018-07-23T06:31:53.485Z,997.85
2018-07-23T06:32:53.518Z,997.89
2018-07-23T06:33:53.618Z,997.90
2018-07-23T06:34:53.590Z,997.92
2018-07-23T06:35:53.626Z,997.91
2018-07-23T06:36:53.661Z,997.92
2018-07-23T06:37:53.697Z,997.93
2018-07-23T06:38:53.732Z,997.95
2018-07-23T06:39:53.769Z,997.97
2018-07-23T06:40:53.804Z,998.00
2018-07-23T06:41:53.839Z,997.93
2018-07-23T06:42:53.878Z,997.92
2018-07-23T06:43:53.911Z,997.96
2018-07-23T06:44:53.948Z,997.93
2018-07-23T06:45:53.987Z,997.94
2018-07-23T06:46:54.022Z,997.92
2018-07-23T06:47:54.057Z,997.91
2018-07-23T06:48:54.092Z,997.85
2018-07-23T06:49:54.127Z,997.89
2018-07-23T06:50:54.165Z,997.91
2018-07-23T06:51:54.201Z,997.90
2018-07-23T06:52:54.237Z,997.90
2018-07-23T06:53:54.306Z,997.89
2018-07-23T06:54:54.310Z,997.94
2018-07-23T06:55:54.346Z,997.95
2018-07-23T06:56:54.382Z,997.93
2018-07-23T06:57:54.420Z,997.96
2018-07-23T06:58:54.455Z,997.96
2018-07-23T06:59:54.492Z,997.97
2018-07-23T07:00:54.527Z,997.96
2018-07-23T07:01:54.564Z,997.97
2018-07-23T07:02:54.603Z,997.97
2018-07-23T07:03:54.639Z,997.96
2018-07-23T07:04:54.676Z,997.98
2018-07-23T07:05:54.712Z,997.96
2018-07-23T07:06:54.749Z,998.01
2018-07-23T07:07:54.785Z,998.00
2018-07-23T07:08:54.822Z,997.94
2018-07-23T07:09:54.860Z,997.94
2018-07-23T07:10:54.949Z,997.93
2018-07-23T07:11:54.934Z,997.94
2018-07-23T07:12:54.970Z,997.94
2018-07-23T07:13:55.009Z,997.98
2018-07-23T07:14:55.046Z,997.98
2018-07-23T07:15:55.082Z,997.99
2018-07-23T07:16:55.119Z,998.00
2018-07-23T07:17:55.156Z,998.00
2018-07-23T07:18:55.194Z,998.00
2018-07-23T07:19:55.251Z,998.04
2018-07-23T07:20:55.269Z,998.04
2018-07-23T07:21:55.306Z,998.04
2018-07-23T07:22:55.343Z,998.02
2018-07-23T07:23:55.381Z,998.02
2018-07-23T07:24:55.417Z,998.00
2018-07-23T07:25:55.455Z,998.01
2018-07-23T07:26:55.493Z,997.97
2018-07-23T07:27:55.531Z,997.98
2018-07-23T07:28:55.567Z,997.97
2018-07-23T07:29:55.606Z,998.01
2018-07-23T07:30:55.644Z,997.96
2018-07-23T07:31:55.682Z,997.96
2018-07-23T07:32:55.718Z,997.98
2018-07-23T07:33:55.757Z,997.98
2018-07-23T07:34:55.795Z,998.04
2018-07-23T07:35:55.832Z,998.00
2018-07-23T07:36:55.869Z,998.05
2018-07-23T07:37:55.914Z,998.02
2018-07-23T07:38:55.945Z,998.05
2018-07-23T07:39:55.983Z,998.03
2018-07-23T07:40:56.020Z,998.05
2018-07-23T07:41:56.059Z,998.03
2018-07-23T07:42:56.097Z,998.04
2018-07-23T07:43:56.134Z,998.05
2018-07-23T07:44:56.171Z,998.04
2018-07-23T07:45:56.208Z,998.02
2018-07-23T07:46:56.247Z,998.05
2018-07-23T07:47:56.286Z,998.06
2018-07-23T07:48:56.323Z,998.04
2018-07-23T07:52:52.330Z,998.03
2018-07-23T07:53:52.367Z,998.02
2018-07-23T07:54:52.404Z,998.04
2018-07-23T07:55:52.442Z,998.02
2018-07-23T07:56:52.485Z,998.04
2018-07-23T07:57:52.518Z,998.05
2018-07-23T07:58:52.606Z,997.97
2018-07-23T07:59:52.596Z,998.01
2018-07-23T08:00:52.633Z,997.99
2018-07-23T08:01:52.672Z,997.93
2018-07-23T08:02:52.710Z,997.95
2018-07-23T08:03:52.747Z,997.93
2018-07-23T08:04:53.114Z,997.95
2018-07-23T08:05:52.825Z,997.97
2018-07-23T08:06:52.863Z,997.96
2018-07-23T08:07:52.902Z,997.91
2018-07-23T08:08:52.940Z,997.96
2018-07-23T08:09:52.982Z,997.97
2018-07-23T08:11:53.056Z,997.98
2018-07-23T08:12:53.095Z,998.00
2018-07-23T08:13:53.134Z,997.98
2018-07-23T08:14:53.176Z,997.97
2018-07-23T08:15:53.238Z,997.99
2018-07-23T08:16:53.249Z,997.99
2018-07-23T08:17:53.300Z,997.98
2018-07-23T08:18:53.326Z,997.95
2018-07-23T08:19:53.365Z,997.97
2018-07-23T08:20:53.406Z,997.95
2018-07-23T08:21:53.443Z,997.98
2018-07-23T08:22:53.481Z,997.98
2018-07-23T08:23:53.541Z,998.04
2018-07-23T08:24:53.560Z,998.00
2018-07-23T08:25:53.600Z,997.99
2018-07-23T08:26:53.669Z,998.03
2018-07-23T08:27:53.733Z,998.07
2018-07-23T08:28:53.716Z,998.10
2018-07-23T08:29:53.756Z,998.12
2018-07-23T08:30:53.794Z,998.12
2018-07-23T08:31:53.913Z,998.15
2018-07-23T08:32:53.873Z,998.18
2018-07-23T08:33:54.442Z,998.17
2018-07-23T08:34:53.951Z,998.14
2018-07-23T08:35:53.992Z,998.18
2018-07-23T08:36:54.056Z,998.19
2018-07-23T08:37:54.071Z,998.17
2018-07-23T08:38:54.110Z,998.15
2018-07-23T08:39:54.148Z,998.19
2018-07-23T08:40:54.246Z,998.19
2018-07-23T08:41:54.229Z,998.20
2018-07-23T08:42:54.268Z,998.17
2018-07-23T08:43:54.306Z,998.20
2018-07-23T08:44:54.400Z,998.16
2018-07-23T08:45:54.387Z,998.19
2018-07-23T08:46:54.447Z,998.16
2018-07-23T08:47:54.692Z,998.18
2018-07-23T08:48:55.042Z,998.16
2018-07-23T08:49:54.771Z,998.19
2018-07-23T08:50:54.609Z,998.18
2018-07-23T08:52:54.692Z,998.20
2018-07-23T08:53:54.706Z,998.17
2018-07-23T08:54:54.970Z,998.20
2018-07-23T08:55:54.787Z,998.23
2018-07-23T08:56:55.031Z,998.28
2018-07-23T08:57:54.868Z,998.28
2018-07-23T08:58:54.928Z,998.29
2018-07-23T09:02:14.702Z,998.23
2018-07-23T09:02:55.071Z,998.22
2018-07-23T09:03:55.109Z,998.22
2018-07-23T09:04:55.150Z,998.27
2018-07-23T09:05:55.190Z,998.17
2018-07-23T09:06:55.230Z,998.11
2018-07-23T09:07:55.271Z,998.11
2018-07-23T09:08:55.312Z,998.07
2018-07-23T09:09:55.352Z,998.16
2018-07-23T09:10:55.393Z,998.16
2018-07-23T09:11:55.433Z,998.19
2018-07-23T09:12:55.475Z,998.18
2018-07-23T09:13:55.515Z,998.25
2018-07-23T09:14:55.554Z,998.26
2018-07-23T09:15:55.595Z,998.23
2018-07-23T09:16:55.636Z,998.33
2018-07-23T09:17:55.677Z,998.32
2018-07-23T09:18:55.716Z,998.30
2018-07-23T09:19:55.757Z,998.34
2018-07-23T09:20:55.798Z,998.32
2018-07-23T09:21:55.840Z,998.24
2018-07-23T09:22:55.880Z,998.20
2018-07-23T09:23:55.979Z,998.23
2018-07-23T09:24:55.961Z,998.20
2018-07-23T09:25:56.003Z,998.18
2018-07-23T09:26:56.091Z,998.18
2018-07-23T09:27:56.085Z,998.21
2018-07-23T09:28:56.329Z,998.13
2018-07-23T09:29:56.167Z,998.14
2018-07-23T09:30:56.245Z,998.20
2018-07-23T09:31:56.250Z,998.22
2018-07-23T09:32:56.292Z,998.24
2018-07-23T09:33:56.664Z,998.28
2018-07-23T09:34:56.375Z,998.27
2018-07-23T09:35:56.417Z,998.26
2018-07-23T09:36:56.458Z,998.27
2018-07-23T09:37:56.503Z,998.25
2018-07-23T09:38:56.542Z,998.27
2018-07-23T09:39:56.584Z,998.17
2018-07-23T09:40:56.626Z,998.25
2018-07-23T09:41:56.669Z,998.24
2018-07-23T09:42:56.711Z,998.26
2018-07-23T09:43:56.752Z,998.24
2018-07-23T09:44:56.794Z,998.23
2018-07-23T09:45:56.839Z,998.23
2018-07-23T09:46:56.878Z,998.16
2018-07-23T09:47:56.921Z,998.16
2018-07-23T09:48:56.963Z,998.14
2018-07-23T09:49:57.006Z,998.17
2018-07-23T09:50:57.049Z,998.15
2018-07-23T09:51:57.094Z,998.09
2018-07-23T09:52:57.133Z,998.24
2018-07-23T09:53:57.175Z,998.27
2018-07-23T09:54:57.217Z,998.23
2018-07-23T09:55:57.259Z,998.16
2018-07-23T09:56:57.303Z,998.19
2018-07-23T09:57:57.346Z,998.15
2018-07-23T09:58:57.386Z,998.18
2018-07-23T09:59:57.432Z,998.19
2018-07-23T10:00:57.482Z,998.17
2018-07-23T10:01:57.516Z,998.19
2018-07-23T10:02:57.596Z,998.15
2018-07-23T10:03:57.601Z,998.16
2018-07-23T10:04:57.973Z,998.12
2018-07-23T10:06:57.729Z,998.04
2018-07-23T10:07:57.773Z,998.11
2018-07-23T10:08:57.816Z,998.11
2018-07-23T10:09:57.859Z,997.96
2018-07-23T10:10:57.933Z,998.02
2018-07-23T10:11:57.948Z,997.93
2018-07-23T10:12:57.988Z,997.80
2018-07-23T10:13:58.038Z,997.83
2018-07-23T10:14:58.074Z,997.87
2018-07-23T10:15:58.117Z,998.03
2018-07-23T10:16:58.161Z,998.08
2018-07-23T10:17:58.204Z,998.08
2018-07-23T10:18:58.247Z,998.07
2018-07-23T10:19:58.290Z,998.09
2018-07-23T10:20:58.335Z,998.07
2018-07-23T10:21:58.378Z,997.94
2018-07-23T10:22:58.420Z,998.03
2018-07-23T10:23:58.464Z,997.99
2018-07-23T10:24:58.508Z,997.96
2018-07-23T10:25:58.754Z,997.98
2018-07-23T10:26:58.921Z,998.01
2018-07-23T10:27:58.639Z,997.93
2018-07-23T10:28:58.682Z,997.91
2018-07-23T10:29:58.728Z,997.94
2018-07-23T10:30:58.771Z,997.95
2018-07-23T10:31:58.815Z,997.96
2018-07-23T10:33:58.904Z,998.01
2018-07-23T10:34:58.953Z,998.07
2018-07-23T10:35:58.994Z,998.00
2018-07-23T10:36:59.042Z,998.03
2018-07-23T10:37:59.088Z,998.03
2018-07-23T10:38:59.134Z,998.00
2018-07-23T10:39:59.181Z,998.01
2018-07-23T10:40:59.228Z,998.06
2018-07-23T10:41:59.278Z,998.07
2018-07-23T10:42:59.325Z,998.10
2018-07-23T10:43:59.375Z,998.15
2018-07-23T10:44:59.444Z,998.20
2018-07-23T10:45:59.473Z,998.19
2018-07-23T10:46:59.522Z,998.25
2018-07-23T10:47:59.571Z,998.17
2018-07-23T10:48:59.624Z,998.38
2018-07-23T10:49:59.673Z,998.36
2018-07-23T10:50:59.776Z,998.35
2018-07-23T10:51:59.774Z,997.62
2018-07-23T10:52:59.823Z,997.45
2018-07-23T10:53:59.878Z,997.47
2018-07-23T10:54:59.926Z,998.29
2018-07-23T10:55:59.976Z,998.41
2018-07-23T10:57:00.028Z,998.44
2018-07-23T10:58:00.078Z,998.47
2018-07-23T10:59:00.129Z,998.38
2018-07-23T11:00:00.182Z,997.49
2018-07-23T11:01:00.233Z,998.40
2018-07-23T11:02:00.284Z,998.43
2018-07-23T11:03:00.335Z,998.48
2018-07-23T11:04:00.388Z,998.39
2018-07-23T11:05:00.439Z,998.46
2018-07-23T11:06:00.492Z,998.42
2018-07-23T11:07:00.542Z,998.40
2018-07-23T11:08:00.595Z,998.46
2018-07-23T11:09:00.647Z,998.41
2018-07-23T11:10:00.726Z,998.34
2018-07-23T11:11:00.753Z,997.92
2018-07-23T11:12:00.805Z,998.36
2018-07-23T11:13:00.858Z,998.41
2018-07-23T11:14:00.913Z,998.43
2018-07-23T11:15:00.965Z,998.41
2018-07-23T11:16:01.019Z,998.39
2018-07-23T11:17:01.072Z,998.41
2018-07-23T11:18:01.127Z,998.42
2018-07-23T11:19:01.183Z,998.47
2018-07-23T11:20:01.235Z,998.42
2018-07-23T11:21:01.287Z,997.31
2018-07-23T11:22:01.341Z,997.43
2018-07-23T11:23:01.394Z,997.57
2018-07-23T11:24:01.485Z,997.87
2018-07-23T11:25:37.951Z,998.48
2018-07-23T11:26:01.555Z,997.74
2018-07-23T11:27:01.608Z,998.52
2018-07-23T11:28:01.661Z,998.40
2018-07-23T11:29:01.714Z,997.46
2018-07-23T11:30:01.768Z,997.48
2018-07-23T11:31:01.819Z,998.58
2018-07-23T11:32:01.929Z,998.12
2018-07-23T11:33:01.924Z,998.36
2018-07-23T11:34:01.975Z,998.54
2018-07-23T11:35:02.028Z,998.38
2018-07-23T11:36:02.081Z,998.38
2018-07-23T11:37:02.137Z,998.07
2018-07-23T11:38:02.186Z,997.34
2018-07-23T11:39:02.239Z,997.37
2018-07-23T11:40:02.290Z,997.54
2018-07-23T11:41:02.343Z,997.96
2018-07-23T11:42:02.394Z,997.67
2018-07-23T11:43:02.447Z,998.57
2018-07-23T11:44:02.497Z,998.53
2018-07-23T11:45:02.549Z,997.57
2018-07-23T11:46:02.601Z,998.61
2018-07-23T11:47:02.681Z,998.55
2018-07-23T11:48:02.704Z,998.61
2018-07-23T11:49:02.759Z,998.61
2018-07-23T11:50:02.808Z,998.58
2018-07-23T11:51:02.859Z,998.65
2018-07-23T11:52:02.911Z,998.57
2018-07-23T11:53:02.963Z,998.57
2018-07-23T11:54:03.018Z,998.56
2018-07-23T11:55:03.069Z,997.52
2018-07-23T11:56:03.125Z,998.60
2018-07-23T11:57:03.298Z,998.58
2018-07-23T11:58:03.232Z,998.55
2018-07-23T11:59:03.282Z,998.26
2018-07-23T12:00:03.338Z,998.50
2018-07-23T12:01:03.389Z,998.48
2018-07-23T12:02:03.442Z,998.41
2018-07-23T12:03:03.495Z,998.47
2018-07-23T12:04:03.548Z,997.62
2018-07-23T12:05:03.603Z,998.46
2018-07-23T12:06:03.655Z,998.46
2018-07-23T12:07:03.708Z,997.46
2018-07-23T12:08:03.762Z,997.30
2018-07-23T12:09:03.813Z,998.40
2018-07-23T12:10:03.864Z,997.21
2018-07-23T12:11:03.917Z,997.19
2018-07-23T12:12:03.969Z,997.18
2018-07-23T12:13:04.021Z,997.16
2018-07-23T12:15:04.121Z,997.30
2018-07-23T12:16:04.192Z,998.61
2018-07-23T12:19:04.324Z,997.32
2018-07-23T12:20:04.401Z,997.41
2018-07-23T12:23:05.352Z,997.27
2018-07-23T12:24:04.570Z,997.25
2018-07-23T12:25:05.046Z,998.03
2018-07-23T12:26:04.726Z,997.60
2018-07-23T12:27:04.717Z,998.37
2018-07-23T12:28:04.767Z,998.36
2018-07-23T12:29:04.815Z,998.47
2018-07-23T12:30:04.865Z,998.38
2018-07-23T12:31:04.912Z,998.36
2018-07-23T12:32:04.962Z,998.26
2018-07-23T12:33:05.011Z,998.38
2018-07-23T12:34:05.090Z,998.26
2018-07-23T12:35:05.110Z,998.36
2018-07-23T12:36:05.159Z,998.26
2018-07-23T12:37:05.234Z,998.34
2018-07-23T12:38:05.484Z,998.41
2018-07-23T12:39:05.310Z,998.05
2018-07-23T12:40:05.425Z,998.19
2018-07-23T12:41:05.436Z,998.31
2018-07-23T12:42:06.679Z,998.27
2018-07-23T12:43:05.515Z,998.23